Time;durP1;ratioP1;P1;durP2;ratioP2;P2;SDS_P1;SDS_P2;PMS_P1;PMS_P2;Temp;Humidity;BMP_temperature;BMP_pressure;BME280_temperature;BME280_humidity;BME280_pressure;Samples;Min_cycle;Max_cycle;Signal;HPM_P1;HPM_P2
2023/04/15 00:01:32;;;;;;;4.30;2.40;;;5.20;99.90;;;;;;5034956;28;20211;-52
2023/04/15 00:03:58;;;;;;;6.97;2.93;;;5.20;99.90;;;;;;5035008;28;20215;-51
2023/04/15 00:06:23;;;;;;;10.63;2.93;;;5.20;99.90;;;;;;5034631;28;20207;-51
2023/04/15 00:08:52;;;;;;;6.50;3.30;;;5.20;99.90;;;;;;5034895;28;20565;-52
2023/04/15 00:11:18;;;;;;;7.60;3.53;;;5.20;99.90;;;;;;5034406;28;20216;-51
2023/04/15 00:13:44;;;;;;;7.07;3.80;;;5.20;99.90;;;;;;5034741;28;20251;-51
2023/04/15 00:16:10;;;;;;;10.90;6.67;;;5.20;99.90;;;;;;5034484;28;20172;-51
2023/04/15 00:18:36;;;;;;;11.97;7.83;;;5.20;99.90;;;;;;5034667;28;20313;-53
2023/04/15 00:21:03;;;;;;;10.67;6.40;;;5.20;99.90;;;;;;5034342;28;20176;-51
2023/04/15 00:23:29;;;;;;;12.63;4.90;;;5.10;99.90;;;;;;5034244;28;20698;-51
2023/04/15 00:25:55;;;;;;;12.30;3.47;;;5.10;99.90;;;;;;5034518;28;20191;-52
2023/04/15 00:28:21;;;;;;;10.17;3.67;;;5.10;99.90;;;;;;5034575;28;20212;-50
2023/04/15 00:30:46;;;;;;;9.03;4.57;;;5.20;99.90;;;;;;5034085;28;20236;-51
2023/04/15 00:33:13;;;;;;;5.67;3.10;;;5.30;99.90;;;;;;5034081;28;20259;-52
2023/04/15 00:35:39;;;;;;;6.87;3.40;;;5.30;99.90;;;;;;5034187;28;20251;-50
2023/04/15 00:38:09;;;;;;;5.60;3.03;;;5.30;99.90;;;;;;5034391;28;20195;-50
2023/04/15 00:40:34;;;;;;;6.70;2.90;;;5.20;99.90;;;;;;5034186;28;20640;-50
2023/04/15 00:43:00;;;;;;;5.20;2.80;;;5.20;99.90;;;;;;5034384;28;20250;-53
2023/04/15 00:45:27;;;;;;;4.93;2.77;;;5.10;99.90;;;;;;5034356;28;20184;-52
2023/04/15 00:47:53;;;;;;;3.83;2.63;;;5.00;99.90;;;;;;5034642;28;20233;-50
2023/04/15 00:50:18;;;;;;;6.50;2.57;;;4.90;99.90;;;;;;5034633;28;20222;-50
2023/04/15 00:52:44;;;;;;;6.17;2.80;;;4.90;99.90;;;;;;5034316;28;20199;-51
2023/04/15 00:55:10;;;;;;;3.33;2.50;;;4.80;99.90;;;;;;5033884;28;20178;-51
2023/04/15 00:57:36;;;;;;;5.93;2.90;;;4.70;99.90;;;;;;5034024;28;20173;-50
2023/04/15 01:00:04;;;;;;;6.53;2.97;;;4.70;99.90;;;;;;5033436;28;20240;-50
2023/04/15 01:02:31;;;;;;;5.40;3.00;;;4.60;99.90;;;;;;5033640;28;20207;-51
2023/04/15 01:04:56;;;;;;;7.57;3.10;;;4.50;99.90;;;;;;5033954;28;20194;-52
2023/04/15 01:07:22;;;;;;;7.10;3.40;;;4.50;99.90;;;;;;5033619;28;20183;-52
2023/04/15 01:09:48;;;;;;;6.33;2.93;;;4.40;99.90;;;;;;5033531;28;20690;-51
2023/04/15 01:12:15;;;;;;;8.83;3.30;;;4.40;99.90;;;;;;5034057;28;20204;-50
2023/04/15 01:14:41;;;;;;;7.03;3.13;;;4.50;99.90;;;;;;5033700;28;20562;-50
2023/04/15 01:17:06;;;;;;;8.07;2.60;;;4.40;99.90;;;;;;5033479;28;20233;-51
2023/04/15 01:19:32;;;;;;;5.07;2.57;;;4.30;99.90;;;;;;5033523;28;20251;-50
2023/04/15 01:21:58;;;;;;;6.60;2.50;;;4.30;99.90;;;;;;5033415;28;20203;-50
2023/04/15 01:24:26;;;;;;;3.93;2.50;;;4.20;99.90;;;;;;5034008;28;20646;-51
2023/04/15 01:26:52;;;;;;;5.17;2.87;;;4.20;99.90;;;;;;5033365;28;20220;-53
2023/04/15 01:29:18;;;;;;;7.40;2.70;;;4.10;99.90;;;;;;5033278;28;20168;-51
2023/04/15 01:31:54;;;;;;;4.70;2.93;;;4.10;99.90;;;;;;5033520;28;20535;-51
2023/04/15 01:34:21;;;;;;;5.97;2.47;;;4.10;99.90;;;;;;5033685;28;20160;-50
2023/04/15 01:36:47;;;;;;;3.20;2.57;;;4.00;99.90;;;;;;5033723;28;20216;-51
2023/04/15 01:39:13;;;;;;;3.47;2.03;;;4.00;99.90;;;;;;5033309;28;20206;-50
2023/04/15 01:41:39;;;;;;;5.40;2.70;;;3.90;99.90;;;;;;5033235;28;20207;-51
2023/04/15 01:44:06;;;;;;;8.73;2.87;;;3.80;99.90;;;;;;5034058;28;20539;-50
2023/04/15 01:46:31;;;;;;;3.63;2.60;;;3.80;99.90;;;;;;5033182;28;20688;-51
2023/04/15 01:48:57;;;;;;;5.93;2.43;;;3.70;99.90;;;;;;5033228;28;20261;-50
2023/04/15 01:51:23;;;;;;;9.03;2.70;;;3.70;99.90;;;;;;5033019;28;20241;-51
2023/04/15 01:53:48;;;;;;;13.30;2.90;;;3.70;99.90;;;;;;5033386;28;20244;-50
2023/04/15 01:56:14;;;;;;;16.10;2.90;;;3.60;99.90;;;;;;5033389;28;20253;-50
2023/04/15 01:58:40;;;;;;;9.43;2.83;;;3.60;99.90;;;;;;5033354;28;20180;-50
2023/04/15 02:01:06;;;;;;;10.47;3.40;;;3.60;99.90;;;;;;5032951;28;20177;-50
2023/04/15 02:03:31;;;;;;;8.83;3.33;;;3.60;99.90;;;;;;5033283;28;20184;-50
2023/04/15 02:05:57;;;;;;;11.47;3.20;;;3.60;99.90;;;;;;5033236;28;20288;-51
2023/04/15 02:08:23;;;;;;;11.23;3.10;;;3.50;99.90;;;;;;5033097;28;20193;-50
2023/04/15 02:10:48;;;;;;;11.50;3.73;;;3.50;99.90;;;;;;5032979;28;20286;-49
2023/04/15 02:13:14;;;;;;;8.60;3.13;;;3.50;99.90;;;;;;5034855;28;20198;-51
2023/04/15 02:15:39;;;;;;;9.10;3.33;;;3.50;99.90;;;;;;5037090;28;20171;-51
2023/04/15 02:18:05;;;;;;;8.33;3.67;;;3.40;99.90;;;;;;5037161;28;20742;-50
2023/04/15 02:20:31;;;;;;;8.33;2.87;;;3.40;99.90;;;;;;5036795;28;20195;-51
2023/04/15 02:22:56;;;;;;;4.47;2.77;;;3.40;99.90;;;;;;5036753;28;20221;-51
2023/04/15 02:25:22;;;;;;;9.17;3.40;;;3.40;99.90;;;;;;5037253;28;20178;-51
2023/04/15 02:27:47;;;;;;;8.10;3.13;;;3.40;99.90;;;;;;5037083;28;20715;-50
2023/04/15 02:30:13;;;;;;;5.67;2.77;;;3.40;99.90;;;;;;5036759;28;20556;-50
2023/04/15 02:32:42;;;;;;;6.33;3.07;;;3.40;99.90;;;;;;5037006;28;20242;-51
2023/04/15 02:35:08;;;;;;;6.10;2.70;;;3.40;99.90;;;;;;5037839;28;20181;-51
2023/04/15 02:37:39;;;;;;;7.83;3.13;;;3.30;99.90;;;;;;5042117;28;20256;-52
2023/04/15 02:40:08;;;;;;;5.60;2.90;;;3.30;99.90;;;;;;5049936;28;20192;-50
2023/04/15 02:42:33;;;;;;;7.00;3.30;;;3.30;99.90;;;;;;5042645;28;20205;-50
2023/04/15 02:44:59;;;;;;;7.67;3.43;;;3.20;99.90;;;;;;5036537;28;20652;-51
2023/04/15 02:47:25;;;;;;;10.90;3.67;;;3.30;99.90;;;;;;5036755;28;20661;-50
2023/04/15 02:49:51;;;;;;;7.17;3.30;;;3.30;99.90;;;;;;5036457;28;20213;-49
2023/04/15 02:52:16;;;;;;;9.40;3.10;;;3.20;99.90;;;;;;5036309;28;20681;-50
2023/04/15 02:54:42;;;;;;;9.73;3.33;;;3.30;99.90;;;;;;5036856;28;20258;-50
2023/04/15 02:57:07;;;;;;;10.50;3.43;;;3.20;99.90;;;;;;5036312;28;20181;-51
2023/04/15 02:59:33;;;;;;;13.07;3.10;;;3.20;99.90;;;;;;5036352;28;20170;-51
2023/04/15 03:02:02;;;;;;;8.50;2.70;;;3.20;99.90;;;;;;5036186;28;20197;-52
2023/04/15 03:04:29;;;;;;;5.77;2.80;;;3.20;99.90;;;;;;5036228;28;20678;-50
2023/04/15 03:06:55;;;;;;;6.80;2.43;;;3.10;99.90;;;;;;5036262;28;20332;-50
2023/04/15 03:09:21;;;;;;;6.40;2.77;;;3.00;99.90;;;;;;5036099;28;20225;-51
2023/04/15 03:11:46;;;;;;;6.13;3.07;;;3.00;99.90;;;;;;5036335;28;20213;-51
2023/04/15 03:14:12;;;;;;;4.57;3.20;;;3.00;99.90;;;;;;5035718;28;20540;-50
2023/04/15 03:16:38;;;;;;;6.63;3.23;;;3.00;99.90;;;;;;5036353;28;20180;-51
2023/04/15 03:19:03;;;;;;;5.73;3.20;;;2.90;99.90;;;;;;5035858;28;20540;-50
2023/04/15 03:21:29;;;;;;;5.57;3.57;;;2.90;99.90;;;;;;5035737;28;20205;-50
2023/04/15 03:23:56;;;;;;;9.90;3.60;;;2.90;99.90;;;;;;5035432;28;20245;-51
2023/04/15 03:26:29;;;;;;;7.93;3.37;;;2.90;99.90;;;;;;5035955;28;20188;-50
2023/04/15 03:28:56;;;;;;;6.47;3.23;;;3.00;99.90;;;;;;5035799;28;20197;-51
2023/04/15 03:31:21;;;;;;;8.23;4.07;;;3.00;99.90;;;;;;5035691;28;20599;-51
2023/04/15 03:33:47;;;;;;;10.27;3.37;;;3.00;99.90;;;;;;5036379;28;20212;-50
2023/04/15 03:36:13;;;;;;;5.83;3.87;;;3.00;99.90;;;;;;5036656;28;20177;-50
2023/04/15 03:38:38;;;;;;;6.03;3.17;;;3.00;99.90;;;;;;5036556;28;20220;-49
2023/04/15 03:41:04;;;;;;;11.90;4.23;;;3.10;99.90;;;;;;5036275;28;20181;-50
2023/04/15 03:43:30;;;;;;;8.67;4.03;;;3.10;99.90;;;;;;5036274;28;20185;-49
2023/04/15 03:45:56;;;;;;;12.30;4.17;;;3.20;99.90;;;;;;5036585;28;20185;-51
2023/04/15 03:48:21;;;;;;;8.37;4.17;;;3.20;99.90;;;;;;5036923;28;20189;-50
2023/04/15 03:50:47;;;;;;;8.90;4.37;;;3.30;99.90;;;;;;5036065;28;20305;-51
2023/04/15 03:53:12;;;;;;;16.33;4.50;;;3.30;99.90;;;;;;5035169;28;20231;-49
2023/04/15 03:55:38;;;;;;;17.87;3.80;;;3.30;99.90;;;;;;5035465;28;20184;-50
2023/04/15 03:58:04;;;;;;;16.80;4.67;;;3.30;99.90;;;;;;5034891;28;20539;-50
2023/04/15 04:00:30;;;;;;;17.37;4.83;;;3.40;99.90;;;;;;5034983;28;20697;-50
2023/04/15 04:02:55;;;;;;;19.50;5.40;;;3.30;99.90;;;;;;5034698;28;20559;-48
2023/04/15 04:05:21;;;;;;;17.60;5.93;;;3.40;99.90;;;;;;5035170;28;20276;-50
2023/04/15 04:07:46;;;;;;;24.33;6.20;;;3.40;99.90;;;;;;5035177;28;20239;-51
2023/04/15 04:10:12;;;;;;;17.67;5.00;;;3.40;99.90;;;;;;5034931;28;20225;-49
2023/04/15 04:12:37;;;;;;;21.23;5.00;;;3.40;99.90;;;;;;5035003;28;20201;-52
2023/04/15 04:15:04;;;;;;;36.13;5.20;;;3.40;99.90;;;;;;5035389;28;20213;-50
2023/04/15 04:17:30;;;;;;;18.97;5.57;;;3.40;99.90;;;;;;5034653;28;20181;-52
2023/04/15 04:19:55;;;;;;;14.17;4.67;;;3.40;99.90;;;;;;5035102;28;20188;-50
2023/04/15 04:22:24;;;;;;;18.07;4.80;;;3.40;99.90;;;;;;5034373;28;20218;-50
2023/04/15 04:24:50;;;;;;;13.40;4.53;;;3.30;99.90;;;;;;5034556;28;20641;-49
2023/04/15 04:27:16;;;;;;;14.13;4.00;;;3.30;99.90;;;;;;5034528;28;20180;-49
2023/04/15 04:29:41;;;;;;;13.67;4.47;;;3.20;99.90;;;;;;5034494;28;20217;-52
2023/04/15 04:32:07;;;;;;;19.80;4.17;;;3.10;99.90;;;;;;5034250;28;20204;-50
2023/04/15 04:34:33;;;;;;;22.40;5.00;;;3.10;99.90;;;;;;5034185;28;20539;-51
2023/04/15 04:36:58;;;;;;;21.17;4.60;;;3.00;99.90;;;;;;5033781;28;20307;-50
2023/04/15 04:39:24;;;;;;;27.03;4.90;;;3.00;99.90;;;;;;5034374;28;20259;-51
2023/04/15 04:41:51;;;;;;;25.73;4.87;;;3.00;99.90;;;;;;5033947;28;20227;-49
2023/04/15 04:44:17;;;;;;;21.73;5.17;;;3.00;99.90;;;;;;5034532;28;20165;-50
2023/04/15 04:46:42;;;;;;;21.73;5.97;;;3.00;99.90;;;;;;5033987;28;20255;-50
2023/04/15 04:49:08;;;;;;;26.90;6.17;;;3.00;99.90;;;;;;5034236;28;20177;-50
2023/04/15 04:51:34;;;;;;;19.20;4.77;;;3.10;99.90;;;;;;5033862;28;20209;-50
2023/04/15 04:53:59;;;;;;;17.27;5.13;;;3.10;99.90;;;;;;5033849;28;20185;-50
2023/04/15 04:56:25;;;;;;;11.90;5.67;;;3.10;99.90;;;;;;5033911;28;20177;-50
2023/04/15 04:58:51;;;;;;;9.80;5.30;;;3.00;99.90;;;;;;5033796;28;20660;-49
2023/04/15 05:01:17;;;;;;;21.80;6.40;;;3.10;99.90;;;;;;5033823;28;20249;-50
2023/04/15 05:03:43;;;;;;;14.03;5.87;;;3.10;99.90;;;;;;5034368;28;20183;-50
2023/04/15 05:06:08;;;;;;;16.73;5.90;;;3.10;99.90;;;;;;5033990;28;20191;-51
2023/04/15 05:08:34;;;;;;;15.63;6.57;;;3.20;99.90;;;;;;5033815;28;20526;-51
2023/04/15 05:10:59;;;;;;;15.93;7.37;;;3.20;99.90;;;;;;5033975;28;20201;-50
2023/04/15 05:13:25;;;;;;;17.80;7.00;;;3.30;99.90;;;;;;5033806;28;20268;-51
2023/04/15 05:15:51;;;;;;;29.10;7.10;;;3.30;99.90;;;;;;5034107;28;20563;-51
2023/04/15 05:18:16;;;;;;;15.97;7.30;;;3.30;99.90;;;;;;5034100;28;20185;-51
2023/04/15 05:20:42;;;;;;;14.80;6.83;;;3.40;99.90;;;;;;5033774;28;20181;-49
2023/04/15 05:23:07;;;;;;;16.60;6.40;;;3.40;99.90;;;;;;5049848;22;20224;-42
2023/04/15 05:25:33;;;;;;;20.87;6.77;;;3.30;99.90;;;;;;5032361;28;20201;-42
2023/04/15 05:27:59;;;;;;;20.83;7.20;;;3.50;99.90;;;;;;5033445;28;20680;-45
2023/04/15 05:30:25;;;;;;;15.53;6.93;;;3.50;99.90;;;;;;5033412;28;20200;-45
2023/04/15 05:32:51;;;;;;;25.10;7.60;;;3.50;99.90;;;;;;5033276;28;20208;-42
2023/04/15 05:35:16;;;;;;;17.93;7.37;;;3.60;99.90;;;;;;5033427;28;20173;-44
2023/04/15 05:37:42;;;;;;;13.33;6.93;;;3.70;99.90;;;;;;5033310;28;20180;-43
2023/04/15 05:40:09;;;;;;;22.23;7.67;;;3.80;99.90;;;;;;5033636;28;20183;-43
2023/04/15 05:42:35;;;;;;;24.07;7.80;;;3.80;99.90;;;;;;5033526;28;20254;-44
2023/04/15 05:45:04;;;;;;;23.07;8.70;;;3.90;99.90;;;;;;5033912;28;20173;-44
2023/04/15 05:47:29;;;;;;;13.97;8.37;;;4.00;99.90;;;;;;5034350;28;20188;-46
2023/04/15 05:49:55;;;;;;;17.93;7.97;;;4.10;99.90;;;;;;5037485;28;20604;-44
2023/04/15 05:52:21;;;;;;;14.97;8.13;;;4.10;99.90;;;;;;5037223;28;20196;-42
2023/04/15 05:54:46;;;;;;;14.97;8.83;;;4.30;99.90;;;;;;5037159;28;20181;-45
2023/04/15 05:57:12;;;;;;;15.87;9.80;;;4.30;99.90;;;;;;5037152;28;20659;-45
2023/04/15 05:59:37;;;;;;;25.43;11.13;;;4.50;99.90;;;;;;5037401;28;20181;-43
2023/04/15 06:02:05;;;;;;;20.93;10.63;;;4.50;99.90;;;;;;5037272;28;20679;-45
2023/04/15 06:04:31;;;;;;;18.30;10.77;;;4.60;99.90;;;;;;5037313;28;20176;-46
2023/04/15 06:06:56;;;;;;;19.27;10.83;;;4.70;99.90;;;;;;5036906;28;20657;-44
2023/04/15 06:09:22;;;;;;;25.80;11.87;;;4.80;99.90;;;;;;5036984;28;20203;-43
2023/04/15 06:11:48;;;;;;;19.03;11.80;;;4.90;99.90;;;;;;5037041;28;20217;-46
2023/04/15 06:14:13;;;;;;;22.37;11.70;;;5.10;99.90;;;;;;5036912;28;20177;-46
2023/04/15 06:16:39;;;;;;;23.10;11.50;;;5.20;99.90;;;;;;5037047;28;20247;-45
2023/04/15 06:19:04;;;;;;;31.27;11.73;;;5.40;99.90;;;;;;5036812;28;20177;-45
2023/04/15 06:21:30;;;;;;;22.93;12.27;;;5.50;99.90;;;;;;5036657;28;20205;-40
2023/04/15 06:24:00;;;;;;;19.20;10.77;;;5.60;99.90;;;;;;5035801;28;20193;-40
2023/04/15 06:26:26;;;;;;;22.77;11.23;;;5.80;99.90;;;;;;5036950;28;20181;-44
2023/04/15 06:28:51;;;;;;;19.03;12.13;;;5.90;99.90;;;;;;5036666;28;20671;-43
2023/04/15 06:31:17;;;;;;;19.50;10.83;;;6.00;99.90;;;;;;5036378;28;20197;-42
2023/04/15 06:33:42;;;;;;;20.00;10.20;;;6.10;99.90;;;;;;5035266;28;20239;-41
2023/04/15 06:36:08;;;;;;;22.80;12.50;;;6.20;99.90;;;;;;5036500;28;20174;-41
2023/04/15 06:38:33;;;;;;;21.53;11.13;;;6.20;99.90;;;;;;5036447;28;20236;-44
2023/04/15 06:40:59;;;;;;;19.50;9.90;;;6.30;99.90;;;;;;5036259;28;20185;-41
2023/04/15 06:43:25;;;;;;;16.67;9.77;;;6.30;99.90;;;;;;5036556;28;20556;-43
2023/04/15 06:45:50;;;;;;;13.73;9.50;;;6.40;99.90;;;;;;5036270;28;20183;-43
2023/04/15 06:48:16;;;;;;;15.73;10.17;;;6.50;99.90;;;;;;5036213;28;20177;-42
2023/04/15 06:50:42;;;;;;;19.27;10.27;;;6.60;99.90;;;;;;5036382;28;20209;-44
2023/04/15 06:53:08;;;;;;;18.00;9.77;;;6.60;99.90;;;;;;5036076;28;20212;-42
2023/04/15 06:55:33;;;;;;;19.73;11.00;;;6.70;99.90;;;;;;5036324;28;20175;-45
2023/04/15 06:57:59;;;;;;;13.13;9.57;;;6.80;99.90;;;;;;5035535;28;20185;-44
2023/04/15 07:00:25;;;;;;;19.20;9.37;;;6.80;99.90;;;;;;5036521;28;20186;-46
2023/04/15 07:02:50;;;;;;;15.67;10.13;;;6.80;99.90;;;;;;5036306;28;20203;-49
2023/04/15 07:05:16;;;;;;;12.90;9.90;;;6.90;99.90;;;;;;5035986;28;20214;-51
2023/04/15 07:07:42;;;;;;;14.37;9.83;;;7.00;99.90;;;;;;5036222;28;20188;-49
2023/04/15 07:10:08;;;;;;;16.63;9.90;;;7.00;99.90;;;;;;5035989;28;20214;-50
2023/04/15 07:12:34;;;;;;;16.43;10.77;;;7.00;99.90;;;;;;5036560;28;20199;-49
2023/04/15 07:15:00;;;;;;;15.60;10.83;;;7.10;99.90;;;;;;5035748;28;20168;-50
2023/04/15 07:17:26;;;;;;;16.77;10.63;;;7.10;99.90;;;;;;5035976;28;20236;-49
2023/04/15 07:19:51;;;;;;;15.87;11.07;;;7.20;99.90;;;;;;5036021;28;20646;-50
2023/04/15 07:22:17;;;;;;;16.20;11.03;;;7.20;99.90;;;;;;5035784;28;20342;-50
2023/04/15 07:24:42;;;;;;;15.17;11.33;;;7.30;99.90;;;;;;5035481;28;20730;-49
2023/04/15 07:27:08;;;;;;;15.40;11.00;;;7.40;99.90;;;;;;5035815;28;20737;-49
2023/04/15 07:29:33;;;;;;;15.67;11.37;;;7.40;99.90;;;;;;5035652;28;20359;-51
2023/04/15 07:31:59;;;;;;;17.33;12.43;;;7.50;99.90;;;;;;5035514;28;20236;-49
2023/04/15 07:34:24;;;;;;;17.73;12.47;;;7.50;99.90;;;;;;5035964;28;20243;-49
2023/04/15 07:36:50;;;;;;;18.10;12.43;;;7.70;99.90;;;;;;5035608;28;20176;-49
2023/04/15 07:39:17;;;;;;;19.73;12.63;;;7.80;99.90;;;;;;5035331;28;20187;-49
2023/04/15 07:41:42;;;;;;;19.40;12.47;;;7.90;99.90;;;;;;5035312;28;20229;-50
2023/04/15 07:44:08;;;;;;;17.17;10.13;;;8.00;99.90;;;;;;5035510;28;20208;-49
2023/04/15 07:46:34;;;;;;;16.93;12.90;;;8.10;99.90;;;;;;5035594;28;20185;-51
2023/04/15 07:49:00;;;;;;;18.53;11.90;;;8.20;99.90;;;;;;5035182;28;20177;-49
2023/04/15 07:51:25;;;;;;;14.83;10.93;;;8.40;99.90;;;;;;5035443;28;20209;-49
2023/04/15 07:53:51;;;;;;;19.63;11.80;;;8.50;99.90;;;;;;5035491;28;20562;-49
2023/04/15 07:56:17;;;;;;;13.80;9.77;;;8.70;99.90;;;;;;5035111;28;20173;-50
2023/04/15 07:58:42;;;;;;;14.27;10.57;;;8.80;99.90;;;;;;5035406;28;20224;-50
2023/04/15 08:01:08;;;;;;;13.60;10.27;;;8.90;99.90;;;;;;5035073;28;20543;-49
2023/04/15 08:03:34;;;;;;;12.63;8.67;;;9.10;99.90;;;;;;5034893;28;20766;-51
2023/04/15 08:05:59;;;;;;;11.53;9.10;;;9.10;99.90;;;;;;5035139;28;20196;-52
2023/04/15 08:08:25;;;;;;;14.07;9.37;;;9.30;99.90;;;;;;5034782;28;20181;-50
2023/04/15 08:10:51;;;;;;;12.57;8.60;;;9.40;99.90;;;;;;5034044;28;20250;-51
2023/04/15 08:13:17;;;;;;;11.17;8.50;;;9.50;99.90;;;;;;5034744;28;20196;-48
2023/04/15 08:15:42;;;;;;;10.60;8.13;;;9.50;99.90;;;;;;5034700;28;20164;-49
2023/04/15 08:18:08;;;;;;;13.03;8.07;;;9.60;99.90;;;;;;5034669;28;20181;-50
2023/04/15 08:20:34;;;;;;;9.93;7.77;;;9.70;99.90;;;;;;5034859;28;20725;-50
2023/04/15 08:22:59;;;;;;;9.90;7.97;;;9.80;99.90;;;;;;5034386;28;20284;-51
2023/04/15 08:25:26;;;;;;;7.43;6.13;;;9.90;99.90;;;;;;5034418;28;20193;-50
2023/04/15 08:27:53;;;;;;;8.20;6.17;;;10.00;99.90;;;;;;5034702;28;20261;-49
2023/04/15 08:30:20;;;;;;;9.37;6.80;;;10.00;99.90;;;;;;5034632;28;20635;-52
2023/04/15 08:32:46;;;;;;;10.50;6.53;;;10.10;99.90;;;;;;5034567;28;20203;-50
2023/04/15 08:35:12;;;;;;;6.47;5.73;;;10.20;99.90;;;;;;5034724;28;20694;-51
2023/04/15 08:37:38;;;;;;;8.67;6.20;;;10.20;99.90;;;;;;5034672;28;20178;-47
2023/04/15 08:40:04;;;;;;;9.80;7.13;;;10.30;99.90;;;;;;5034475;28;20180;-48
2023/04/15 08:42:39;;;;;;;11.70;7.20;;;10.30;99.90;;;;;;5034409;28;20197;-49
2023/04/15 08:45:10;;;;;;;8.20;6.50;;;10.40;99.90;;;;;;5034961;28;20511;-49
2023/04/15 08:47:38;;;;;;;7.70;6.20;;;10.50;99.90;;;;;;5034664;28;20184;-51
2023/04/15 08:50:07;;;;;;;8.30;6.67;;;10.50;99.90;;;;;;5034170;28;20323;-51
2023/04/15 08:52:33;;;;;;;9.27;6.70;;;10.60;99.90;;;;;;5034864;28;20235;-49
2023/04/15 08:55:01;;;;;;;9.20;7.00;;;10.70;99.90;;;;;;5034840;28;20196;-50
2023/04/15 08:57:28;;;;;;;9.00;7.13;;;10.80;99.90;;;;;;5034232;28;20196;-50
2023/04/15 08:59:56;;;;;;;9.93;7.33;;;10.80;99.90;;;;;;5034068;28;20554;-50
2023/04/15 09:02:23;;;;;;;8.00;6.87;;;10.90;99.90;;;;;;5033702;28;20199;-49
2023/04/15 09:04:48;;;;;;;9.37;6.97;;;11.10;99.90;;;;;;5034068;28;20585;-50
2023/04/15 09:07:14;;;;;;;9.83;7.10;;;11.20;99.90;;;;;;5034003;28;20247;-51
2023/04/15 09:09:41;;;;;;;8.07;6.37;;;11.40;99.90;;;;;;5033699;28;20223;-50
2023/04/15 09:12:07;;;;;;;10.43;7.10;;;11.50;99.90;;;;;;5033725;28;20188;-50
2023/04/15 09:14:33;;;;;;;11.07;6.67;;;11.50;99.90;;;;;;5033877;28;20185;-49
2023/04/15 09:17:01;;;;;;;9.17;6.07;;;11.60;99.90;;;;;;5033981;28;20256;-49
2023/04/15 09:19:27;;;;;;;7.73;5.70;;;11.60;99.90;;;;;;5033871;28;20181;-51
2023/04/15 09:21:55;;;;;;;8.57;5.57;;;11.70;99.90;;;;;;5033606;28;20563;-49
2023/04/15 09:24:21;;;;;;;8.43;4.73;;;11.70;99.90;;;;;;5033457;28;20572;-49
2023/04/15 09:26:47;;;;;;;7.93;4.93;;;11.70;99.90;;;;;;5033878;28;20189;-51
2023/04/15 09:29:12;;;;;;;9.00;5.90;;;11.80;99.90;;;;;;5033790;28;20548;-51
2023/04/15 09:31:39;;;;;;;9.03;6.00;;;12.00;99.90;;;;;;5033347;28;20715;-51
2023/04/15 09:34:06;;;;;;;9.27;5.80;;;12.10;99.90;;;;;;5033451;28;20184;-53
2023/04/15 09:36:52;;;;;;;7.53;5.60;;;12.20;99.90;;;;;;5033987;28;20169;-50
2023/04/15 09:39:18;;;;;;;10.80;5.87;;;12.30;99.90;;;;;;5033379;28;20161;-43
2023/04/15 09:41:44;;;;;;;11.40;8.00;;;12.30;99.90;;;;;;5033269;28;20209;-43
2023/04/15 09:44:25;;;;;;;10.13;7.93;;;12.30;99.90;;;;;;5033556;28;20180;-43
2023/04/15 09:46:51;;;;;;;9.57;6.40;;;12.30;99.90;;;;;;5033330;28;20219;-46
2023/04/15 09:49:16;;;;;;;6.40;4.13;;;12.30;99.90;;;;;;5033267;28;20216;-46
2023/04/15 09:51:43;;;;;;;7.30;3.97;;;12.30;99.90;;;;;;5033076;28;20209;-44
2023/04/15 09:54:08;;;;;;;7.30;4.03;;;12.30;99.90;;;;;;5033709;28;20643;-46
2023/04/15 09:56:37;;;;;;;7.47;4.27;;;12.30;99.90;;;;;;5033451;28;20185;-45
2023/04/15 09:59:04;;;;;;;9.07;4.93;;;12.20;99.90;;;;;;5033563;28;20183;-45
2023/04/15 10:01:30;;;;;;;3.53;3.13;;;12.10;99.90;;;;;;5033215;28;20205;-44
2023/04/15 10:03:56;;;;;;;16.53;7.87;;;12.10;99.90;;;;;;5034002;28;20185;-46
2023/04/15 10:06:25;;;;;;;9.30;5.30;;;12.10;99.90;;;;;;5033611;28;20176;-46
2023/04/15 10:08:51;;;;;;;4.60;3.40;;;12.10;99.90;;;;;;5033836;28;20251;-45
2023/04/15 10:11:18;;;;;;;7.40;3.80;;;12.10;99.90;;;;;;5033288;28;20196;-44
2023/04/15 10:13:48;;;;;;;6.57;3.93;;;12.00;99.90;;;;;;5033574;28;20756;-46
2023/04/15 10:16:15;;;;;;;3.37;2.90;;;12.00;99.90;;;;;;5033224;28;20256;-46
2023/04/15 10:18:54;;;;;;;3.33;2.57;;;12.00;99.90;;;;;;5033319;28;20177;-45
2023/04/15 10:21:22;;;;;;;3.50;2.50;;;12.00;99.90;;;;;;5033521;28;20566;-45
2023/04/15 10:23:48;;;;;;;3.10;2.70;;;12.10;99.90;;;;;;5033699;28;20271;-46
2023/04/15 10:26:16;;;;;;;3.33;2.77;;;12.10;99.90;;;;;;5035367;28;20185;-46
2023/04/15 10:28:46;;;;;;;5.80;3.50;;;12.20;99.90;;;;;;5044280;22;20240;-46
2023/04/15 10:31:13;;;;;;;6.40;4.03;;;12.20;99.90;;;;;;5038503;28;20209;-43
2023/04/15 10:33:41;;;;;;;5.23;3.53;;;12.30;99.90;;;;;;5036266;28;20652;-46
2023/04/15 10:36:07;;;;;;;3.67;3.23;;;12.30;99.90;;;;;;5039733;28;20188;-48
2023/04/15 10:38:45;;;;;;;3.13;2.67;;;12.30;99.90;;;;;;5037930;28;20165;-50
2023/04/15 10:41:25;;;;;;;3.07;2.23;;;12.40;99.90;;;;;;5037470;28;20195;-49
2023/04/15 10:43:58;;;;;;;4.47;2.63;;;12.40;99.90;;;;;;5036810;28;20186;-51
2023/04/15 10:46:37;;;;;;;2.60;2.10;;;12.40;99.90;;;;;;5037074;28;20227;-50
2023/04/15 10:49:15;;;;;;;6.50;2.50;;;12.40;99.90;;;;;;5036632;28;20244;-50
2023/04/15 10:51:44;;;;;;;3.83;2.77;;;12.40;99.90;;;;;;5036388;28;20594;-51
2023/04/15 10:54:25;;;;;;;2.67;2.43;;;12.50;99.90;;;;;;5036242;28;20720;-50
2023/04/15 10:57:15;;;;;;;2.53;2.33;;;12.50;99.90;;;;;;5036439;28;20171;-50
2023/04/15 11:00:05;;;;;;;3.00;2.70;;;12.50;99.90;;;;;;5024675;28;20197;-49
2023/04/15 11:02:50;;;;;;;3.53;2.60;;;12.70;99.90;;;;;;5036028;28;20193;-48
2023/04/15 11:05:17;;;;;;;2.73;2.40;;;12.70;99.90;;;;;;5036306;28;20218;-51
2023/04/15 11:07:47;;;;;;;4.67;3.27;;;12.70;99.90;;;;;;5035978;28;20181;-50
2023/04/15 11:10:13;;;;;;;4.90;4.00;;;12.90;99.90;;;;;;5035990;28;20275;-50
2023/04/15 11:12:39;;;;;;;4.83;3.97;;;13.00;99.90;;;;;;5036063;28;20642;-51
2023/04/15 11:15:26;;;;;;;4.30;3.70;;;13.00;99.90;;;;;;5036877;28;20188;-50
2023/04/15 11:17:51;;;;;;;4.13;3.73;;;12.90;99.90;;;;;;5036345;28;20177;-50
2023/04/15 11:20:18;;;;;;;4.10;3.53;;;12.90;99.90;;;;;;5036365;28;20185;-50
2023/04/15 11:22:48;;;;;;;4.43;2.90;;;12.90;99.90;;;;;;5018141;28;20287;-49
2023/04/15 11:25:23;;;;;;;3.47;2.27;;;13.00;99.90;;;;;;5035913;28;20181;-50
2023/04/15 11:27:49;;;;;;;4.63;2.90;;;13.10;99.90;;;;;;5035447;28;20192;-51
2023/04/15 11:30:23;;;;;;;2.47;1.97;;;13.00;99.90;;;;;;5035760;28;20220;-51
2023/04/15 11:32:50;;;;;;;4.40;2.40;;;12.90;99.90;;;;;;5035581;28;20192;-51
2023/04/15 11:35:17;;;;;;;2.93;2.50;;;12.90;99.90;;;;;;5035750;28;20185;-50
2023/04/15 11:37:43;;;;;;;2.97;2.53;;;12.90;99.90;;;;;;5035701;28;20165;-52
2023/04/15 11:40:09;;;;;;;3.00;2.70;;;12.90;99.90;;;;;;5035686;28;20185;-52
2023/04/15 11:42:35;;;;;;;2.83;2.60;;;12.90;99.90;;;;;;5035834;28;20611;-44
2023/04/15 11:45:12;;;;;;;3.20;2.27;;;12.90;99.90;;;;;;5035451;28;20219;-44
2023/04/15 11:47:38;;;;;;;3.13;2.47;;;12.80;99.90;;;;;;5035638;28;20161;-43
2023/04/15 11:50:21;;;;;;;4.37;2.60;;;12.80;99.90;;;;;;5035385;28;20204;-45
2023/04/15 11:53:02;;;;;;;4.00;3.07;;;12.90;99.90;;;;;;5035353;28;20192;-43
2023/04/15 11:55:27;;;;;;;3.30;2.67;;;13.10;99.90;;;;;;5035037;28;20181;-43
2023/04/15 11:58:17;;;;;;;4.03;3.20;;;13.30;99.90;;;;;;5035021;28;20261;-41
2023/04/15 12:00:59;;;;;;;4.17;3.40;;;13.40;99.90;;;;;;5035000;28;20637;-44
2023/04/15 12:03:25;;;;;;;5.27;3.17;;;13.40;99.90;;;;;;5035026;28;20177;-42
2023/04/15 12:06:05;;;;;;;3.33;2.87;;;13.40;99.90;;;;;;5035089;28;20192;-45
2023/04/15 12:08:57;;;;;;;5.47;3.13;;;13.30;99.90;;;;;;5035054;28;20294;-44
2023/04/15 12:11:25;;;;;;;2.80;2.50;;;13.20;99.90;;;;;;5034831;28;20304;-44
2023/04/15 12:13:54;;;;;;;3.30;2.30;;;13.20;99.90;;;;;;5035011;28;20577;-43
2023/04/15 12:16:20;;;;;;;2.50;2.30;;;13.20;99.90;;;;;;5034900;28;20182;-45
2023/04/15 12:18:56;;;;;;;3.07;2.77;;;13.20;99.90;;;;;;5035109;28;20248;-45
2023/04/15 12:21:23;;;;;;;2.57;2.33;;;13.20;99.90;;;;;;5034806;28;20199;-45
2023/04/15 12:23:50;;;;;;;4.93;2.60;;;13.40;99.90;;;;;;5034655;28;20736;-45
2023/04/15 12:26:16;;;;;;;4.00;2.90;;;13.50;99.90;;;;;;5034472;28;20654;-50
2023/04/15 12:28:42;;;;;;;3.73;2.10;;;13.50;99.90;;;;;;5034275;28;20262;-50
2023/04/15 12:31:09;;;;;;;2.80;2.43;;;13.60;99.90;;;;;;5034323;28;20656;-53
2023/04/15 12:33:35;;;;;;;2.80;2.60;;;13.60;99.90;;;;;;5034291;28;20687;-51
2023/04/15 12:36:01;;;;;;;2.33;1.93;;;13.60;99.90;;;;;;5034556;28;20173;-49
2023/04/15 12:38:26;;;;;;;3.40;2.20;;;13.70;99.90;;;;;;5034245;28;20173;-48
2023/04/15 12:40:53;;;;;;;3.27;2.90;;;13.60;99.90;;;;;;5034469;28;20188;-50
2023/04/15 12:43:18;;;;;;;4.03;2.70;;;13.60;99.90;;;;;;5034138;28;20251;-50
2023/04/15 12:45:45;;;;;;;3.53;2.77;;;13.50;99.90;;;;;;5034274;28;20304;-52
2023/04/15 12:48:11;;;;;;;3.13;2.70;;;13.30;99.90;;;;;;5048387;23;20616;-46